createdAt,value
2019-04-04T00:00:28.907Z,34.02
2019-04-04T00:05:36.536Z,33.89
2019-04-04T00:10:44.544Z,34.17
2019-04-04T00:15:50.938Z,34.39
2019-04-04T00:20:57.070Z,34.58
2019-04-04T00:26:03.505Z,34.35
2019-04-04T00:31:12.761Z,34.46
2019-04-04T00:36:21.155Z,34.53
2019-04-04T00:41:29.421Z,34.68
2019-04-04T00:51:53.932Z,34.61
2019-04-04T00:57:00.019Z,34.50
2019-04-04T01:02:07.217Z,34.69
2019-04-04T01:07:17.807Z,35.15
2019-04-04T01:12:29.740Z,34.69
2019-04-04T01:17:37.538Z,34.70
2019-04-04T01:22:46.183Z,34.65
2019-04-04T01:27:54.859Z,34.76
2019-04-04T01:33:03.813Z,35.16
2019-04-04T01:38:11.539Z,35.58
2019-04-04T01:43:19.058Z,35.31
2019-04-04T01:48:29.357Z,35.49
2019-04-04T01:53:37.010Z,35.73
2019-04-04T01:58:44.630Z,35.85
2019-04-04T02:03:54.437Z,36.08
2019-04-04T02:09:03.623Z,36.44
2019-04-04T02:14:12.834Z,36.26
2019-04-04T02:19:24.841Z,36.40
2019-04-04T02:24:42.082Z,36.99
2019-04-04T02:29:53.139Z,36.91
2019-04-04T02:35:04.478Z,36.85
2019-04-04T02:40:14.977Z,37.11
2019-04-04T02:45:23.680Z,37.33
2019-04-04T02:50:34.813Z,36.83
2019-04-04T02:55:42.358Z,37.35
2019-04-04T03:00:50.707Z,37.37
2019-04-04T03:06:02.593Z,37.73
2019-04-04T03:11:13.308Z,37.80
2019-04-04T03:16:22.765Z,38.39
2019-04-04T03:21:34.140Z,37.99
2019-04-04T03:26:42.944Z,38.15
2019-04-04T03:31:53.662Z,38.36
2019-04-04T03:37:06.652Z,38.89
2019-04-04T03:42:17.294Z,38.77
2019-04-04T03:47:29.132Z,38.66
2019-04-04T03:52:43.325Z,38.78
2019-04-04T03:57:55.080Z,39.21
2019-04-04T04:03:06.045Z,39.22
2019-04-04T04:08:13.485Z,38.96
2019-04-04T04:13:22.779Z,39.14
2019-04-04T04:18:30.623Z,39.16
2019-04-04T04:23:37.824Z,38.99
2019-04-04T04:28:44.665Z,39.41
2019-04-04T04:33:53.524Z,39.32
2019-04-04T04:39:05.366Z,39.53
2019-04-04T04:44:12.142Z,39.77
2019-04-04T04:49:23.111Z,39.56
2019-04-04T04:54:28.274Z,39.34
2019-04-04T04:59:34.033Z,39.58
2019-04-04T05:04:40.013Z,39.53
2019-04-04T05:09:47.715Z,39.61
2019-04-04T05:14:53.367Z,40.08
2019-04-04T05:20:00.572Z,39.82
2019-04-04T05:25:09.010Z,39.45
2019-04-04T05:30:16.770Z,39.38
2019-04-04T05:35:23.747Z,39.20
2019-04-04T05:40:30.759Z,39.42
2019-04-04T05:45:36.915Z,39.44
2019-04-04T05:50:44.380Z,39.35
2019-04-04T05:55:50.658Z,39.27
2019-04-04T06:00:57.807Z,39.04
2019-04-04T06:06:03.704Z,39.18
2019-04-04T06:11:10.510Z,38.65
2019-04-04T06:16:17.726Z,38.29
2019-04-04T06:21:23.298Z,38.12
2019-04-04T06:26:28.878Z,38.25
2019-04-04T06:31:34.994Z,38.23
2019-04-04T06:36:40.932Z,38.10
2019-04-04T06:41:46.489Z,37.52
2019-04-04T06:46:53.442Z,37.67
2019-04-04T06:51:59.788Z,37.58
2019-04-04T06:57:05.946Z,37.65
2019-04-04T07:02:12.064Z,37.14
2019-04-04T07:07:17.793Z,36.67
2019-04-04T07:12:28.248Z,36.73
2019-04-04T07:17:31.078Z,36.10
2019-04-04T07:22:38.333Z,35.87
2019-04-04T07:27:45.368Z,35.79
2019-04-04T07:32:51.835Z,35.38
2019-04-04T07:37:57.710Z,35.55
2019-04-04T07:43:03.439Z,35.52
2019-04-04T07:48:12.091Z,35.58
2019-04-04T07:53:17.291Z,35.12
2019-04-04T07:58:23.586Z,35.04
2019-04-04T08:03:31.179Z,34.42
2019-04-04T08:08:37.129Z,34.35
2019-04-04T08:13:42.849Z,34.69
2019-04-04T08:18:48.608Z,35.31
2019-04-04T08:23:54.175Z,34.87
2019-04-04T08:28:59.941Z,34.93
2019-04-04T08:34:06.526Z,34.41
2019-04-04T08:39:12.810Z,34.55
2019-04-04T08:44:18.760Z,34.46
2019-04-04T08:49:24.809Z,34.01
2019-04-04T08:54:30.466Z,33.92
2019-04-04T08:59:39.108Z,33.21
2019-04-04T09:04:45.899Z,32.89
2019-04-04T09:09:51.678Z,32.52
2019-04-04T09:14:59.079Z,31.67
2019-04-04T09:20:09.550Z,32.22
2019-04-04T09:25:16.541Z,31.55
2019-04-04T09:30:22.886Z,30.64
2019-04-04T09:35:29.143Z,30.14
2019-04-04T09:40:37.118Z,30.52
2019-04-04T09:45:43.262Z,29.83
2019-04-04T09:50:49.743Z,28.42
2019-04-04T09:55:55.930Z,28.96
2019-04-04T10:01:06.396Z,28.66
2019-04-04T10:06:13.275Z,32.44
2019-04-04T10:11:19.168Z,28.55
2019-04-04T10:16:25.683Z,27.29
2019-04-04T10:21:31.502Z,28.51
2019-04-04T10:26:38.054Z,26.46
2019-04-04T10:31:45.088Z,25.90
2019-04-04T10:36:51.598Z,26.20
2019-04-04T10:41:58.970Z,25.21
2019-04-04T10:47:07.191Z,25.44
2019-04-04T10:52:12.841Z,25.04
2019-04-04T10:57:19.893Z,24.52
2019-04-04T11:02:27.509Z,23.93
2019-04-04T11:07:35.533Z,23.01
2019-04-04T11:12:44.797Z,23.21
2019-04-04T11:17:51.411Z,23.13
2019-04-04T11:22:57.689Z,23.68
2019-04-04T11:28:04.979Z,23.88
2019-04-04T11:33:11.131Z,22.62
2019-04-04T11:38:17.448Z,22.01
2019-04-04T11:43:24.073Z,23.16
2019-04-04T11:48:34.562Z,22.02
2019-04-04T11:53:41.519Z,21.86
2019-04-04T11:58:48.852Z,21.43
2019-04-04T12:03:55.547Z,21.27
2019-04-04T12:09:02.382Z,21.22
2019-04-04T12:14:09.752Z,21.47
2019-04-04T12:19:15.695Z,21.44
2019-04-04T12:24:21.615Z,22.29
2019-04-04T12:29:27.830Z,22.40
2019-04-04T12:34:35.522Z,21.70
2019-04-04T12:39:44.352Z,21.27
2019-04-04T12:44:51.185Z,20.98
2019-04-04T12:49:58.263Z,21.06
2019-04-04T12:55:07.353Z,19.83
2019-04-04T13:00:14.083Z,20.07
2019-04-04T13:05:22.458Z,20.55
2019-04-04T13:10:33.246Z,19.65
2019-04-04T13:15:39.876Z,20.36
2019-04-04T13:20:48.959Z,20.33
2019-04-04T13:26:00.142Z,20.01
2019-04-04T13:31:08.860Z,20.17
2019-04-04T16:25:48.885Z,18.17
2019-04-04T16:31:00.111Z,17.63
2019-04-04T16:36:09.092Z,18.51
2019-04-04T16:41:16.607Z,18.27
2019-04-04T16:46:25.781Z,17.51
2019-04-04T16:51:35.531Z,18.35
2019-04-04T16:56:43.272Z,17.92
2019-04-04T17:01:56.542Z,17.91
2019-04-04T17:07:04.671Z,17.05
2019-04-04T17:12:15.503Z,16.47
2019-04-04T17:17:23.879Z,17.47
2019-04-04T17:22:34.097Z,18.65
2019-04-04T17:27:49.159Z,19.70
2019-04-04T17:32:58.952Z,20.14
2019-04-04T17:38:08.631Z,20.65
2019-04-04T17:43:18.572Z,21.22
2019-04-04T17:48:31.524Z,22.15
2019-04-04T17:53:40.144Z,21.71
2019-04-04T17:58:48.389Z,22.42
2019-04-04T18:03:58.308Z,22.69
2019-04-04T18:09:11.247Z,23.19
2019-04-04T18:14:22.677Z,23.09
2019-04-04T18:19:31.583Z,22.81
2019-04-04T18:24:39.378Z,22.71
2019-04-04T18:29:45.649Z,23.14
2019-04-04T18:34:51.571Z,22.83
2019-04-04T18:39:58.113Z,23.00
2019-04-04T18:45:07.084Z,22.97
2019-04-04T18:50:16.929Z,23.05
2019-04-04T18:55:24.373Z,23.13
2019-04-04T19:00:31.331Z,23.45
2019-04-04T19:05:39.958Z,23.36
2019-04-04T19:10:46.965Z,24.03
2019-04-04T19:15:54.599Z,23.97
2019-04-04T19:21:02.329Z,24.43
2019-04-04T19:26:10.305Z,24.76
2019-04-04T19:31:17.046Z,25.04
2019-04-04T19:36:23.151Z,25.33
2019-04-04T19:41:31.587Z,25.28
2019-04-04T19:46:37.978Z,25.58
2019-04-04T19:51:44.696Z,25.88
2019-04-04T19:56:50.442Z,26.08
2019-04-04T20:01:57.856Z,26.16
2019-04-04T20:07:05.238Z,26.51
2019-04-04T20:12:11.068Z,26.60
2019-04-04T20:17:17.527Z,26.64
2019-04-04T20:22:23.115Z,26.76
2019-04-04T20:27:29.278Z,26.79
2019-04-04T20:32:35.092Z,26.51
2019-04-04T20:37:40.850Z,27.28
2019-04-04T20:42:47.432Z,27.23
2019-04-04T20:47:52.999Z,27.49
2019-04-04T20:52:58.976Z,28.17
2019-04-04T20:58:04.784Z,28.69
2019-04-04T21:03:10.435Z,29.94
2019-04-04T21:08:16.288Z,29.48
2019-04-04T21:13:22.127Z,29.92
2019-04-04T21:18:27.966Z,29.83
2019-04-04T21:23:33.670Z,30.03
2019-04-04T21:28:41.004Z,30.11
2019-04-04T21:33:46.754Z,30.48
2019-04-04T21:38:52.314Z,30.81
2019-04-04T21:44:08.118Z,30.68
2019-04-04T21:49:05.623Z,30.86
2019-04-04T21:54:11.737Z,30.90
2019-04-04T21:59:18.833Z,31.22
2019-04-04T22:04:24.864Z,31.64
2019-04-04T22:09:33.622Z,31.37
2019-04-04T22:14:40.407Z,31.46
2019-04-04T22:19:46.062Z,31.60
2019-04-04T22:24:52.184Z,31.78
2019-04-04T22:29:58.400Z,31.71
2019-04-04T22:35:06.107Z,32.02
2019-04-04T22:40:12.473Z,32.04
2019-04-04T22:45:18.186Z,32.27
2019-04-04T22:50:23.997Z,32.37
2019-04-04T22:55:30.072Z,32.34
2019-04-04T23:00:36.100Z,32.88
2019-04-04T23:05:41.673Z,33.00
2019-04-04T23:10:47.951Z,33.08
2019-04-04T23:15:53.832Z,33.02
2019-04-04T23:20:59.686Z,33.23
2019-04-04T23:26:05.503Z,33.08
2019-04-04T23:31:11.607Z,33.34
2019-04-04T23:36:17.570Z,33.33
2019-04-04T23:41:24.070Z,33.50
2019-04-04T23:46:30.147Z,33.72
2019-04-04T23:51:36.362Z,33.59
2019-04-04T23:56:42.056Z,34.09
